Latest Weather Observations for Penrith

IDN60901

Issued at 10:41 pm EDT Thursday 23 February 2017 (issued every 10 minutes, with the page automatically refreshed every 10 minutes)

About weather observations | Map of Sydney area stations | Latest observations for Sydney area | Other Formats
Station Details ID: 067113 Name: PENRITH LAKES AWS Lat: -33.72 Lon: 150.68 Height: 24.7 m
Data from the previous 72 hours. | See also: Recent months at Penrith
Date/Time
EDT
Temp
°C
App
Temp
°C
Dew
Point
°C
Rel
Hum
%
Delta-T
°C
Wind Press
QNH
hPa
Press
MSL
hPa
Rain since
9am
mm
Dir  Spd
km/h
Gust
km/h
Spd
kts
Gust
kts
23/10:30pm 25.6 26.7 16.5 57 5.6 E 6 6 3 3 - - 0.0
23/10:00pm 25.8 26.9 16.6 56 5.7 ESE 6 7 3 4 - - 0.0
23/09:30pm 26.4 27.9 16.6 55 6.1 ENE 4 4 2 2 - - 0.0
23/09:00pm 26.9 28.5 16.8 54 6.3 ENE 4 7 2 4 - - 0.0
23/08:30pm 27.3 27.6 16.9 53 6.5 E 11 17 6 9 - - 0.0
23/08:00pm 28.3 28.3 17.2 51 7.0 E 13 20 7 11 - - 0.0
23/07:30pm 29.9 30.6 17.0 45 8.1 ENE 9 13 5 7 - - 0.0
23/07:00pm 31.1 31.1 16.3 41 9.3 E 11 15 6 8 - - 0.0
23/06:30pm 32.5 30.9 15.1 35 10.8 ENE 17 22 9 12 - - 0.0
23/06:00pm 34.1 32.3 15.5 32 11.6 ENE 19 24 10 13 - - 0.0
23/05:30pm 35.8 34.8 16.5 31 12.3 ENE 17 24 9 13 - - 0.0
23/05:00pm 36.3 36.2 15.9 29 12.9 NE 11 22 6 12 - - 0.0
23/04:30pm 36.8 36.8 14.1 25 14.1 E 7 19 4 10 - - 0.0
23/04:00pm 36.3 35.6 14.3 27 13.6 NE 11 15 6 8 - - 0.0
23/03:30pm 35.7 36.2 14.9 29 13.0 NE 6 11 3 6 - - 0.0
23/03:00pm 35.6 36.6 15.3 29 12.7 ENE 4 9 2 5 - - 0.0
23/02:30pm 34.1 34.6 15.1 32 11.8 NE 6 13 3 7 - - 0.0
23/02:00pm 33.4 34.8 16.3 36 10.8 NNW 4 9 2 5 - - 0.0
23/01:30pm 32.2 33.4 16.9 40 9.7 N 6 9 3 5 - - 0.0
23/01:00pm 31.5 32.7 17.4 43 9.0 NW 7 11 4 6 - - 0.0
23/12:30pm 30.4 32.2 17.5 46 8.2 WNW 4 7 2 4 - - 0.0
23/12:00pm 29.4 31.0 17.9 50 7.3 SW 6 7 3 4 - - 0.0
23/11:30am 27.2 28.5 17.1 54 6.3 WSW 6 11 3 6 - - 0.0
23/11:00am 26.4 28.1 17.2 57 5.7 WNW 4 7 2 4 - - 0.0
23/10:30am 25.4 27.0 16.8 59 5.3 SW 4 6 2 3 - - 0.0
23/10:00am 24.3 25.9 16.8 63 4.6 W 4 9 2 5 - - 0.0
23/09:30am 23.8 25.3 16.6 64 4.4 ESE 4 7 2 4 - - 0.0
23/09:00am 22.5 24.1 16.8 70 3.5 SSE 4 6 2 3 - - 0.0
23/08:30am 21.4 23.7 16.8 75 2.8 CALM 0 4 0 2 - - 0.0
23/08:00am 19.6 21.4 16.4 82 1.9 S 2 4 1 2 - - 0.0
23/07:30am 18.9 21.2 16.7 87 1.3 CALM 0 0 0 0 - - 0.0
23/07:00am 17.8 19.8 17.0 95 0.5 SSW 2 2 1 1 - - 0.0
23/06:30am 17.8 20.1 16.8 94 0.6 CALM 0 0 0 0 - - 0.0
23/06:00am 17.8 19.7 16.7 93 0.7 SSW 2 4 1 2 - - 0.0
23/05:30am 17.9 19.5 16.8 93 0.7 SSW 4 6 2 3 - - 0.0
23/05:00am 18.5 20.8 16.7 89 1.1 CALM 0 0 0 0 - - 0.0
23/04:30am 18.4 20.6 16.4 88 1.2 CALM 0 0 0 0 - - 0.0
23/04:00am 18.8 21.0 16.6 87 1.3 CALM 0 0 0 0 - - 0.0
23/03:30am 18.9 20.3 16.5 86 1.4 SW 4 6 2 3 - - 0.0
23/03:00am 19.4 21.6 16.4 83 1.8 CALM 0 0 0 0 - - 0.0
23/02:30am 19.7 21.9 16.5 82 1.9 CALM 0 0 0 0 - - 0.0
23/02:00am 19.6 21.0 16.3 81 2.0 SW 4 6 2 3 - - 0.0
23/01:30am 20.1 21.5 16.5 80 2.2 SSW 4 6 2 3 - - 0.0
23/01:00am 20.4 21.5 16.6 79 2.3 SSW 6 7 3 4 - - 0.0
23/12:30am 20.6 21.8 16.8 79 2.3 SW 6 7 3 4 - - 0.0
23/12:00am 21.6 23.6 16.1 71 3.3 CALM 0 0 0 0 - - 0.0
 
Date/Time
EDT
Temp
°C
App
Temp
°C
Dew
Point
°C
Rel
Hum
%
Delta-T
°C
Wind Press
QNH
hPa
Press
MSL
hPa
Rain since
9am
mm
Dir  Spd
km/h
Gust
km/h
Spd
kts
Gust
kts
22/11:30pm 22.2 23.1 16.0 68 3.7 ENE 6 6 3 3 - - 0.0
22/11:00pm 22.6 24.6 15.9 66 4.0 CALM 0 0 0 0 - - 0.0
22/10:30pm 22.7 23.9 16.0 66 4.0 E 4 6 2 3 - - 0.0
22/10:00pm 23.1 25.0 15.7 63 4.5 CALM 0 0 0 0 - - 0.0
22/09:30pm 23.8 24.6 15.8 61 4.8 NE 6 7 3 4 - - 0.0
22/09:00pm 24.4 24.7 15.9 59 5.2 ENE 9 13 5 7 - - 0.0
22/08:30pm 24.8 24.9 15.4 56 5.7 ENE 9 15 5 8 - - 0.0
22/08:00pm 25.5 24.8 15.5 54 6.1 ENE 13 17 7 9 - - 0.0
22/07:30pm 26.4 24.9 15.4 50 6.7 NE 17 22 9 12 - - 0.0
22/07:00pm 27.5 26.6 15.8 48 7.2 ENE 15 20 8 11 - - 0.0
22/06:30pm 28.6 27.8 16.2 47 7.7 ENE 15 24 8 13 - - 0.0
22/06:00pm 29.2 28.0 16.0 44 8.2 ENE 17 30 9 16 - - 0.0
22/05:30pm 29.7 27.6 16.1 43 8.5 ENE 22 30 12 16 - - 0.0
22/05:00pm 30.4 28.4 16.4 43 8.8 E 22 39 12 21 - - 0.0
22/04:30pm 31.5 29.9 16.6 40 9.4 E 20 32 11 17 - - 0.0
22/04:00pm 31.8 29.8 16.5 39 9.6 ENE 22 32 12 17 - - 0.0
22/03:30pm 32.6 31.0 13.8 32 11.4 NE 15 20 8 11 - - 0.0
22/03:00pm 32.3 31.1 14.0 33 11.1 NE 13 24 7 13 - - 0.0
22/02:30pm 31.6 30.5 14.3 35 10.5 NE 13 24 7 13 - - 0.0
22/02:00pm 30.8 31.0 14.8 37 9.8 NE 7 20 4 11 - - 0.0
22/01:30pm 30.0 29.1 14.9 39 9.2 NNE 13 24 7 13 - - 0.0
22/01:00pm 29.3 28.1 15.1 42 8.7 NE 15 26 8 14 - - 0.0
22/12:30pm 28.9 27.8 15.4 44 8.3 NNE 15 24 8 13 - - 0.0
22/12:00pm 27.0 25.9 15.4 49 7.1 N 15 22 8 12 - - 0.0
22/11:30am 27.1 27.3 15.8 50 6.9 NE 9 19 5 10 - - 0.0
22/11:00am 26.6 26.4 15.6 50 6.7 NNE 11 19 6 10 - - 0.0
22/10:30am 26.2 26.1 15.9 53 6.3 NNE 11 20 6 11 - - 0.0
22/10:00am 24.5 25.2 15.7 58 5.3 NW 6 7 3 4 - - 0.0
22/09:30am 24.3 25.4 15.5 58 5.3 N 4 9 2 5 - - 0.0
22/09:00am 23.1 24.4 15.2 61 4.7 SSE 2 6 1 3 - - 0.0
22/08:30am 21.5 22.8 15.1 67 3.8 SSE 2 4 1 2 - - 0.0
22/08:00am 20.5 21.5 15.3 72 3.1 SE 4 6 2 3 - - 0.0
22/07:30am 19.8 21.8 15.9 78 2.3 CALM 0 0 0 0 - - 0.0
22/07:00am 18.3 19.4 15.6 84 1.6 S 4 6 2 3 - - 0.0
22/06:30am 18.0 19.0 15.4 85 1.5 SSW 4 6 2 3 - - 0.0
22/06:00am 18.1 19.2 15.5 85 1.5 SSW 4 4 2 2 - - 0.0
22/05:30am 18.0 18.8 15.8 87 1.3 S 6 9 3 5 - - 0.0
22/05:00am 17.7 18.9 15.9 89 1.1 SSE 4 6 2 3 - - 0.0
22/04:30am 17.9 19.9 16.1 89 1.1 CALM 0 0 0 0 - - 0.0
22/04:00am 18.2 20.0 15.5 84 1.6 CALM 0 0 0 0 - - 0.0
22/03:30am 18.6 20.5 15.7 83 1.7 CALM 0 0 0 0 - - 0.0
22/03:00am 18.8 20.3 15.7 82 1.8 SW 2 2 1 1 - - 0.0
22/02:30am 19.2 21.2 16.1 82 1.8 CALM 0 0 0 0 - - 0.0
22/02:00am 19.5 21.5 16.0 80 2.1 CALM 0 0 0 0 - - 0.0
22/01:30am 19.8 21.8 15.9 78 2.3 CALM 0 0 0 0 - - 0.0
22/01:00am 20.7 22.5 15.5 72 3.1 CALM 0 0 0 0 - - 0.0
22/12:30am 21.1 21.9 14.7 67 3.8 NE 4 4 2 2 - - 0.0
22/12:00am 21.6 22.5 15.0 66 3.9 NE 4 6 2 3 - - 0.0
 
Date/Time
EDT
Temp
°C
App
Temp
°C
Dew
Point
°C
Rel
Hum
%
Delta-T
°C
Wind Press
QNH
hPa
Press
MSL
hPa
Rain since
9am
mm
Dir  Spd
km/h
Gust
km/h
Spd
kts
Gust
kts
21/11:30pm 22.4 23.3 15.0 63 4.4 ENE 4 6 2 3 - - 0.0
21/11:00pm 22.7 23.0 15.0 61 4.6 NE 7 9 4 5 - - 0.0
21/10:30pm 22.9 23.5 15.2 62 4.6 N 6 7 3 4 - - 0.0
21/10:00pm 23.1 23.5 15.2 61 4.7 NNE 7 11 4 6 - - 0.0
21/09:30pm 23.5 22.6 14.8 58 5.2 NE 13 20 7 11 - - 0.0
21/09:00pm 23.9 24.1 14.6 56 5.5 NE 7 11 4 6 - - 0.0
21/08:30pm 24.4 23.4 14.5 54 5.9 NE 13 26 7 14 - - 0.0
21/08:00pm 24.6 23.3 13.8 51 6.3 ENE 13 19 7 10 - - 0.0
21/07:30pm 25.0 23.4 13.9 50 6.5 ENE 15 24 8 13 - - 0.0
21/07:00pm 25.9 24.1 13.4 46 7.3 ENE 15 24 8 13 - - 0.0
21/06:30pm 26.9 25.5 13.3 43 8.0 E 13 22 7 12 - - 0.0
21/06:00pm 27.1 25.2 13.1 42 8.2 ESE 15 24 8 13 - - 0.0
21/05:30pm 27.4 25.1 13.0 41 8.5 E 17 28 9 15 - - 0.0
21/05:00pm 28.2 26.0 13.3 40 8.8 ESE 17 24 9 13 - - 0.0
21/04:30pm 28.5 25.9 13.2 39 9.1 ESE 19 26 10 14 - - 0.0
21/04:00pm 28.4 26.5 13.1 39 9.0 SE 15 24 8 13 - - 0.0
21/03:30pm 28.6 26.9 12.5 37 9.4 ESE 13 20 7 11 - - 0.0
21/03:00pm 27.9 26.5 11.0 35 9.6 ESE 9 20 5 11 - - 0.0
21/02:30pm 28.7 27.5 11.7 35 9.8 ENE 9 15 5 8 - - 0.0
21/02:00pm 28.2 26.7 10.4 33 10.0 ENE 9 15 5 8 - - 0.0
21/01:30pm 26.9 26.0 10.6 36 9.2 N 6 11 3 6 - - 0.0
21/01:00pm 27.0 24.9 11.1 37 9.0 N 13 28 7 15 - - 0.0
21/12:30pm 26.4 25.0 10.9 38 8.7 NE 9 24 5 13 - - 0.0
21/12:00pm 25.7 24.6 10.7 39 8.4 ENE 7 19 4 10 - - 0.0
21/11:30am 25.5 23.9 8.1 33 9.3 SE 6 13 3 7 - - 0.0
21/11:00am 24.9 23.0 7.5 33 9.2 SSE 7 13 4 7 - - 0.0
21/10:30am 23.7 22.1 7.8 36 8.4 S 6 9 3 5 - - 0.0
21/10:00am 22.2 21.0 8.0 40 7.4 ESE 4 6 2 3 - - 0.0
21/09:30am 20.4 19.2 8.1 45 6.4 S 4 6 2 3 - - 0.0
21/09:00am 18.5 17.7 8.2 51 5.3 SE 2 2 1 1 - - 0.0
21/08:30am 17.1 16.3 8.3 56 4.5 SSE 2 4 1 2 - - 0.0
21/08:00am 16.4 16.8 11.3 72 2.7 CALM 0 0 0 0 - - 0.0
21/07:30am 15.4 15.7 11.0 75 2.3 CALM 0 0 0 0 - - 0.0
21/07:00am 14.4 14.7 11.0 80 1.8 CALM 0 0 0 0 - - 0.0
21/06:30am 14.2 14.2 9.8 75 2.3 CALM 0 4 0 2 - - 0.0
21/06:00am 14.6 14.5 9.6 72 2.6 CALM 0 0 0 0 - - 0.0
21/05:30am 15.0 14.8 8.9 67 3.1 CALM 0 2 0 1 - - 0.0
21/05:00am 14.8 14.4 8.3 65 3.3 CALM 0 0 0 0 - - 0.0
21/04:30am 14.6 13.4 7.9 64 3.3 WSW 4 6 2 3 - - 0.0
21/04:00am 15.0 13.6 8.7 66 3.2 SW 6 7 3 4 - - 0.0
21/03:30am 15.1 13.6 8.3 64 3.4 S 6 9 3 5 - - 0.0
21/03:00am 15.7 15.3 8.4 62 3.7 CALM 0 4 0 2 - - 0.0
21/02:30am 15.4 14.5 9.1 66 3.2 WSW 4 9 2 5 - - 0.0
21/02:00am 15.5 14.0 8.5 63 3.6 SSW 6 9 3 5 - - 0.0
21/01:30am 15.8 14.8 9.0 64 3.5 SSW 4 6 2 3 - - 0.0
21/01:00am 16.4 15.4 8.9 61 3.9 SW 4 6 2 3 - - 0.0
21/12:30am 16.3 15.5 9.7 65 3.4 SSE 4 6 2 3 - - 0.0
21/12:00am 17.6 17.0 9.0 57 4.5 SW 2 6 1 3 - - 0.0
 
Date/Time
EDT
Temp
°C
App
Temp
°C
Dew
Point
°C
Rel
Hum
%
Delta-T
°C
Wind Press
QNH
hPa
Press
MSL
hPa
Rain since
9am
mm
Dir  Spd
km/h
Gust
km/h
Spd
kts
Gust
kts
20/11:30pm 18.1 17.2 9.2 56 4.7 SW 4 6 2 3 - - 0.0
20/11:00pm 18.5 17.5 8.7 53 5.1 SW 4 6 2 3 - - 0.0

Latest Capital City Observations: Canberra | Sydney | Melbourne | Brisbane | Adelaide | Perth | Hobart | Darwin

Other Formats:

Comma delimited format used in spreadsheet applications
http://www.bom.gov.au/fwo/IDN60901/IDN60901.94763.axf

JavaScript Object Notation format (JSON) in row-major order
http://www.bom.gov.au/fwo/IDN60901/IDN60901.94763.json